Time;durP1;ratioP1;P1;durP2;ratioP2;P2;SDS_P1;SDS_P2;PMS_P1;PMS_P2;Temp;Humidity;BMP_temperature;BMP_pressure;BME280_temperature;BME280_humidity;BME280_pressure;Samples;Min_cycle;Max_cycle;Signal;HPM_P1;HPM_P2
2021/12/17 00:00:18;;;;;;;19.75;7.68;;;;;;;5.11;100.00;101276.66;5068631;28;20129;-78
2021/12/17 00:03:11;;;;;;;17.75;8.30;;;;;;;5.09;100.00;101273.19;5067110;28;20100;-78
2021/12/17 00:05:50;;;;;;;20.60;8.63;;;;;;;4.98;100.00;101255.09;5067876;28;20130;-78
2021/12/17 00:08:18;;;;;;;20.92;7.93;;;;;;;5.06;100.00;101268.88;5067553;28;20381;-79
2021/12/17 00:10:44;;;;;;;21.92;8.95;;;;;;;5.10;100.00;101280.06;5066918;28;20091;-79
2021/12/17 00:13:11;;;;;;;24.55;8.73;;;;;;;5.12;100.00;101279.22;5068666;28;20571;-78
2021/12/17 00:15:37;;;;;;;12.13;7.07;;;;;;;5.12;100.00;101289.56;5067357;28;20366;-79
2021/12/17 00:18:12;;;;;;;18.75;8.23;;;;;;;5.05;100.00;101263.69;5067193;28;20464;-78
2021/12/17 00:53:20;;;;;;;24.98;8.77;;;;;;;5.08;100.00;101274.91;5066518;28;20151;-80
2021/12/17 00:55:46;;;;;;;21.05;9.18;;;;;;;5.06;100.00;101275.78;5064108;28;20024;-80
2021/12/17 00:58:11;;;;;;;20.48;8.30;;;;;;;5.14;100.00;101284.38;5066029;28;20391;-80
2021/12/17 01:00:37;;;;;;;24.83;9.00;;;;;;;5.02;100.00;101268.88;5066094;28;20033;-81
2021/12/17 01:03:02;;;;;;;23.10;8.90;;;;;;;5.10;100.00;101287.81;5063464;28;20033;-80
2021/12/17 01:05:30;;;;;;;16.27;8.07;;;;;;;5.10;100.00;101288.69;5064091;28;20028;-80
2021/12/17 01:07:58;;;;;;;21.50;7.50;;;;;;;4.90;100.00;101257.66;5064972;28;20074;-80
2021/12/17 01:10:28;;;;;;;18.35;7.78;;;;;;;5.09;100.00;101291.25;5062743;28;20053;-80
2021/12/17 01:12:53;;;;;;;20.93;8.73;;;;;;;4.97;100.00;101267.16;5065362;28;20036;-79
2021/12/17 01:15:19;;;;;;;19.92;9.48;;;;;;;4.99;100.00;101264.56;5067664;28;20074;-80
2021/12/17 01:17:50;;;;;;;23.15;8.25;;;;;;;5.06;100.00;101284.38;5073998;28;20103;-81
2021/12/17 01:36:11;;;;;;;19.92;8.15;;;;;;;4.96;100.00;101275.72;5059548;28;20048;-81
2021/12/17 01:41:45;;;;;;;17.92;7.95;;;;;;;4.96;100.00;101283.47;5054241;28;20071;-81
2021/12/17 01:44:05;;;;;;;19.70;7.32;;;;;;;5.06;100.00;101301.59;5061653;28;20037;-80
2021/12/17 01:46:32;;;;;;;15.95;6.95;;;;;;;4.94;100.00;101266.28;5064306;28;20028;-80
2021/12/17 01:59:56;;;;;;;19.98;7.68;;;;;;;5.03;100.00;101294.69;5073548;28;20071;-80
2021/12/17 02:02:22;;;;;;;19.67;7.78;;;;;;;4.91;100.00;101272.28;5072922;28;20020;-80
2021/12/17 02:04:47;;;;;;;19.52;8.27;;;;;;;4.96;100.00;101274.88;5061558;28;20392;-80
2021/12/17 02:07:13;;;;;;;17.88;7.75;;;;;;;4.88;100.00;101267.09;5062895;28;20013;-80
2021/12/17 02:29:01;;;;;;;18.13;7.05;;;;;;;4.90;100.00;101255.09;4996175;28;20027;-81
2021/12/17 02:31:32;;;;;;;17.38;7.72;;;;;;;4.97;100.00;101256.81;4993348;28;20066;-80
2021/12/17 02:34:07;;;;;;;15.65;7.57;;;;;;;4.90;100.00;101242.16;5002352;28;20629;-80
2021/12/17 02:36:34;;;;;;;19.67;7.28;;;;;;;4.78;100.00;101215.47;4999330;28;20108;-80
2021/12/17 02:39:35;;;;;;;24.67;7.50;;;;;;;4.80;100.00;101227.50;5000834;28;20100;-80
2021/12/17 02:47:18;;;;;;;20.45;7.22;;;;;;;4.77;100.00;101224.06;4991056;28;20562;-80
2021/12/17 02:49:45;;;;;;;16.45;7.10;;;;;;;4.87;100.00;101246.47;4990501;28;20035;-80
2021/12/17 02:52:12;;;;;;;19.25;7.05;;;;;;;4.86;100.00;101255.94;4974573;28;20041;-80
2021/12/17 02:54:38;;;;;;;19.70;7.97;;;;;;;4.88;100.00;101269.69;4974385;28;20092;-80
2021/12/17 02:57:05;;;;;;;18.55;7.60;;;;;;;4.82;100.00;101248.19;4990868;28;20030;-80
2021/12/17 02:59:35;;;;;;;13.70;6.82;;;;;;;4.78;100.00;101247.31;4990571;28;20513;-80
2021/12/17 03:02:03;;;;;;;16.77;7.00;;;;;;;4.91;100.00;101267.13;4990760;28;20034;-80
2021/12/17 03:04:30;;;;;;;19.73;7.63;;;;;;;4.77;100.00;101237.84;4990821;28;20028;-80
2021/12/17 03:06:56;;;;;;;30.08;8.00;;;;;;;4.92;100.00;101245.59;5044643;28;20140;-80
2021/12/17 03:09:36;;;;;;;22.92;7.47;;;;;;;4.77;100.00;101240.44;5051027;28;20091;-81
2021/12/17 03:12:05;;;;;;;24.80;7.67;;;;;;;4.79;100.00;101240.41;5052361;28;20025;-80
2021/12/17 03:14:31;;;;;;;21.05;7.93;;;;;;;4.80;100.00;101248.16;5052366;28;20140;-80
2021/12/17 03:17:07;;;;;;;21.77;7.53;;;;;;;4.92;100.00;101255.06;5050998;28;20491;-80
2021/12/17 03:25:00;;;;;;;21.27;7.03;;;;;;;4.91;100.00;101267.13;5051823;28;20044;-80
2021/12/17 03:27:25;;;;;;;21.27;7.20;;;;;;;4.80;100.00;101249.88;5051859;28;20040;-81
2021/12/17 03:29:50;;;;;;;20.95;6.63;;;;;;;4.83;100.00;101257.63;5050576;28;20040;-81
2021/12/17 03:32:16;;;;;;;24.40;7.78;;;;;;;4.83;100.00;101261.06;5052067;28;20460;-81
2021/12/17 03:34:41;;;;;;;18.08;6.88;;;;;;;4.92;100.00;101284.34;5050541;28;20135;-80
2021/12/17 03:37:07;;;;;;;17.92;6.85;;;;;;;4.94;100.00;101290.38;5050662;28;20047;-80
2021/12/17 03:39:33;;;;;;;18.25;7.30;;;;;;;4.84;100.00;101269.69;5067197;28;20040;-81
2021/12/17 03:42:00;;;;;;;18.27;7.03;;;;;;;4.74;100.00;101250.72;5050812;28;20021;-80
2021/12/17 03:44:25;;;;;;;18.95;7.47;;;;;;;4.90;100.00;101274.88;5052030;28;20039;-80
2021/12/17 03:46:52;;;;;;;24.70;7.85;;;;;;;4.95;100.00;101283.50;5050108;28;20108;-80
2021/12/17 03:49:18;;;;;;;17.85;7.45;;;;;;;4.88;100.00;101268.84;5051750;28;20025;-80
2021/12/17 03:54:38;;;;;;;20.00;7.68;;;;;;;4.87;100.00;101259.38;5069104;28;20430;-80
2021/12/17 03:57:07;;;;;;;16.88;7.32;;;;;;;4.85;100.00;101255.94;5069407;28;20067;-81
2021/12/17 03:59:33;;;;;;;19.52;7.78;;;;;;;4.84;100.00;101249.03;5069136;28;20036;-81
2021/12/17 04:01:59;;;;;;;22.15;7.70;;;;;;;4.93;100.00;101260.25;5069222;28;20396;-81
2021/12/17 04:04:24;;;;;;;22.30;8.13;;;;;;;4.99;100.00;101280.91;5069109;28;20040;-80
2021/12/17 04:06:50;;;;;;;20.95;7.57;;;;;;;4.94;100.00;101272.31;5069208;28;20102;-80
2021/12/17 04:09:19;;;;;;;16.13;6.57;;;;;;;4.86;100.00;101261.09;5069204;28;20056;-80
2021/12/17 04:11:46;;;;;;;22.85;6.45;;;;;;;4.87;100.00;101262.81;5068859;28;20056;-81
2021/12/17 04:14:12;;;;;;;26.80;7.57;;;;;;;4.88;100.00;101256.78;5069196;28;20035;-80
2021/12/17 04:16:37;;;;;;;18.80;7.00;;;;;;;4.93;100.00;101268.00;5068810;28;20468;-80
2021/12/17 04:19:03;;;;;;;21.02;6.72;;;;;;;4.84;100.00;101249.88;5068986;28;20043;-81
2021/12/17 04:21:28;;;;;;;16.30;6.47;;;;;;;4.93;100.00;101257.69;5052211;28;20035;-81
2021/12/17 04:23:54;;;;;;;20.92;6.78;;;;;;;4.81;100.00;101233.56;5068876;28;20033;-80
2021/12/17 04:26:22;;;;;;;16.83;6.07;;;;;;;4.90;100.00;101252.50;5069088;28;20124;-80
2021/12/17 04:28:50;;;;;;;15.85;5.85;;;;;;;4.86;100.00;101249.91;5068757;28;20024;-80
2021/12/17 04:31:17;;;;;;;11.90;6.65;;;;;;;4.79;100.00;101235.25;5058290;28;20081;-81
2021/12/17 04:33:44;;;;;;;17.42;6.90;;;;;;;4.77;100.00;101235.25;5051093;28;20017;-81
2021/12/17 04:36:14;;;;;;;17.95;6.68;;;;;;;4.77;100.00;101221.50;5051554;28;20132;-80
2021/12/17 04:38:40;;;;;;;25.40;7.45;;;;;;;4.86;100.00;101248.19;5054445;28;20128;-81
2021/12/17 04:43:56;;;;;;;15.40;6.35;;;;;;;4.79;100.00;101230.09;5054988;28;20052;-80
2021/12/17 04:46:31;;;;;;;15.73;5.97;;;;;;;4.69;100.00;101217.16;5055504;28;20099;-80
2021/12/17 04:57:27;;;;;;;14.25;6.72;;;;;;;4.78;100.00;101218.91;5055407;28;20079;-80
2021/12/17 04:59:53;;;;;;;14.82;6.47;;;;;;;4.66;100.00;101201.66;5054647;28;20098;-81
2021/12/17 05:02:18;;;;;;;15.48;5.22;;;;;;;4.80;100.00;101224.06;5054896;28;20464;-80
2021/12/17 05:04:44;;;;;;;21.65;6.72;;;;;;;4.81;100.00;101229.25;5054448;28;20025;-81
2021/12/17 05:07:13;;;;;;;25.65;6.57;;;;;;;4.80;100.00;101221.47;5053545;28;20083;-81
2021/12/17 05:20:25;;;;;;;16.50;5.57;;;;;;;4.72;100.00;101208.59;5054437;28;20546;-79
2021/12/17 05:22:56;;;;;;;16.80;5.90;;;;;;;4.80;100.00;101227.50;5054248;28;20036;-79
2021/12/17 05:25:22;;;;;;;;;;;;;;;4.80;100.00;101232.66;5053443;28;20613;-79
2021/12/17 05:27:47;;;;;;;26.27;7.05;;;;;;;4.72;100.00;101218.91;5053954;28;20003;-80
2021/12/17 05:30:13;;;;;;;21.42;6.78;;;;;;;4.68;100.00;101223.19;5054256;28;20036;-80
2021/12/17 05:32:38;;;;;;;17.98;6.32;;;;;;;4.52;100.00;101205.09;5052702;28;20079;-80
2021/12/17 05:35:05;;;;;;;25.90;7.30;;;;;;;4.47;100.00;101207.66;5054219;28;20064;-79
2021/12/17 05:37:31;;;;;;;23.17;7.53;;;;;;;4.57;100.00;101221.44;5053889;28;20025;-79
2021/12/17 05:39:57;;;;;;;18.20;6.43;;;;;;;4.56;100.00;101209.41;5052727;28;20534;-79
2021/12/17 05:42:23;;;;;;;18.30;6.43;;;;;;;4.65;100.00;101225.75;5053854;28;20108;-80
2021/12/17 05:44:52;;;;;;;21.67;6.75;;;;;;;4.62;100.00;101222.31;5053957;28;20453;-79
2021/12/17 05:47:18;;;;;;;20.85;6.93;;;;;;;4.39;100.00;101189.56;5053840;28;20040;-80
2021/12/17 05:49:43;;;;;;;18.13;6.70;;;;;;;4.51;100.00;101199.06;5053382;28;20055;-80
2021/12/17 05:52:08;;;;;;;22.30;6.82;;;;;;;4.44;100.00;101189.56;5053853;28;20051;-80
2021/12/17 05:54:34;;;;;;;17.63;6.60;;;;;;;4.31;100.00;101186.09;5052252;28;20115;-84
2021/12/17 05:56:59;;;;;;;14.60;5.70;;;;;;;4.38;100.00;101213.66;5053584;28;20108;-85
2021/12/17 05:59:32;;;;;;;26.85;7.95;;;;;;;4.38;100.00;101207.59;5052503;28;20068;-87
2021/12/17 06:02:00;;;;;;;20.88;7.05;;;;;;;4.49;100.00;101218.81;5053699;28;20087;-87
2021/12/17 06:04:30;;;;;;;20.85;6.20;;;;;;;4.51;100.00;101217.13;5054046;28;20021;-93
2021/12/17 06:07:35;;;;;;;18.85;7.50;;;;;;;4.52;100.00;101221.41;5052500;28;20031;-93
2021/12/17 06:10:42;;;;;;;16.08;6.13;;;;;;;4.29;100.00;101174.91;5050541;28;20101;-94
2021/12/17 06:13:07;;;;;;;20.58;6.03;;;;;;;4.45;100.00;101204.19;4956756;28;20046;-89
2021/12/17 06:15:33;;;;;;;21.42;7.05;;;;;;;4.47;100.00;101208.50;4956342;28;20042;-89
2021/12/17 06:17:58;;;;;;;15.52;7.22;;;;;;;4.50;100.00;101211.06;4956128;28;20030;-88
2021/12/17 06:20:24;;;;;;;18.02;6.88;;;;;;;4.52;100.00;101220.56;4972428;28;20591;-87
2021/12/17 06:22:50;;;;;;;17.27;6.63;;;;;;;4.50;100.00;101221.41;4955757;28;20487;-89
2021/12/17 06:25:15;;;;;;;15.23;5.35;;;;;;;4.51;100.00;101219.72;4955866;28;20495;-88
2021/12/17 06:27:42;;;;;;;21.73;6.47;;;;;;;4.47;100.00;101221.41;4955661;28;20039;-89
2021/12/17 06:30:12;;;;;;;16.33;6.75;;;;;;;4.57;100.00;101255.84;4966091;28;20106;-87
2021/12/17 06:32:37;;;;;;;15.70;6.43;;;;;;;4.57;100.00;101248.09;4959505;28;20042;-87
2021/12/17 06:35:05;;;;;;;21.60;6.38;;;;;;;4.62;100.00;101259.28;4965845;28;20034;-87
2021/12/17 06:37:30;;;;;;;13.23;6.70;;;;;;;4.63;100.00;101266.16;4974885;28;20453;-89
2021/12/17 06:39:58;;;;;;;15.88;6.45;;;;;;;4.64;100.00;101273.06;4991364;28;20030;-88
2021/12/17 06:42:25;;;;;;;17.77;6.55;;;;;;;4.60;100.00;101253.28;4975106;28;20497;-88
2021/12/17 06:44:51;;;;;;;13.32;6.15;;;;;;;4.66;100.00;101271.34;4990049;28;20034;-85
2021/12/17 06:47:32;;;;;;;18.92;6.50;;;;;;;4.64;100.00;101264.47;5010440;28;20496;-85
2021/12/17 06:54:41;;;;;;;18.85;6.32;;;;;;;4.69;100.00;101265.34;5010684;28;20428;-87
2021/12/17 06:56:23;;;;;;;15.10;6.15;;;;;;;4.66;100.00;101270.50;4991034;28;20521;-83
2021/12/17 07:09:49;;;;;;;15.27;6.40;;;;;;;4.63;100.00;101286.81;5050149;28;20044;-82
2021/12/17 07:17:27;;;;;;;26.70;9.32;;;;;;;4.55;100.00;101251.50;5049779;28;20068;-79
2021/12/17 07:40:47;;;;;;;19.00;7.00;;;;;;;4.63;100.00;101270.47;5051940;28;20515;-81
2021/12/17 07:43:21;;;;;;;21.27;8.68;;;;;;;4.61;100.00;101257.56;5050426;28;20029;-81
2021/12/17 07:45:47;;;;;;;15.77;8.30;;;;;;;4.53;100.00;101243.78;5051751;28;20029;-81
2021/12/17 07:48:13;;;;;;;19.13;7.85;;;;;;;4.61;100.00;101262.72;5050275;28;20056;-82
2021/12/17 07:50:39;;;;;;;20.92;8.00;;;;;;;4.53;100.00;101264.41;5050567;28;20029;-81
2021/12/17 07:53:04;;;;;;;11.00;7.03;;;;;;;4.61;100.00;101272.19;5050492;28;20485;-81
2021/12/17 07:55:30;;;;;;;14.82;7.22;;;;;;;4.49;100.00;101267.84;5051701;28;20118;-81
2021/12/17 07:57:55;;;;;;;24.15;10.65;;;;;;;4.59;100.00;101282.50;5050095;28;20029;-81
2021/12/17 08:00:20;;;;;;;24.52;9.30;;;;;;;4.62;100.00;101292.84;5051945;28;20024;-81
2021/12/17 08:02:46;;;;;;;25.88;9.73;;;;;;;4.62;100.00;101294.56;5050315;28;20036;-81
2021/12/17 08:05:11;;;;;;;23.23;7.82;;;;;;;4.62;100.00;101297.13;5051829;28;20048;-81
2021/12/17 08:07:36;;;;;;;13.40;7.45;;;;;;;4.58;100.00;101292.81;5051576;28;20060;-81
2021/12/17 08:10:02;;;;;;;21.92;8.93;;;;;;;4.66;100.00;101301.47;5050149;28;20021;-81
2021/12/17 08:12:28;;;;;;;17.98;8.05;;;;;;;4.64;100.00;101295.44;5054613;28;20422;-81
2021/12/17 08:14:53;;;;;;;17.30;9.60;;;;;;;4.68;100.00;101292.88;5054042;28;20040;-82
2021/12/17 08:25:27;;;;;;;21.63;9.68;;;;;;;4.72;100.00;101304.94;5055701;28;20511;-81
2021/12/17 08:28:04;;;;;;;17.40;9.25;;;;;;;4.75;100.00;101316.97;5053898;28;20413;-81
2021/12/17 08:30:38;;;;;;;17.77;8.65;;;;;;;4.56;100.00;101282.50;5055471;28;20032;-81
2021/12/17 08:33:05;;;;;;;22.00;7.65;;;;;;;4.75;100.00;101320.41;5053779;28;20067;-81
2021/12/17 08:35:31;;;;;;;18.20;9.00;;;;;;;4.72;100.00;101311.81;5053968;28;20032;-81
2021/12/17 08:37:56;;;;;;;16.02;6.97;;;;;;;4.63;100.00;101301.44;5053991;28;20025;-81
2021/12/17 08:40:26;;;;;;;15.10;8.27;;;;;;;4.77;100.00;101319.59;5053961;28;20032;-81
2021/12/17 08:42:52;;;;;;;16.60;7.70;;;;;;;4.57;100.00;101271.31;5053764;28;20055;-81
2021/12/17 08:45:18;;;;;;;17.45;7.93;;;;;;;4.85;100.00;101307.56;5037131;28;20427;-81
2021/12/17 08:47:44;;;;;;;18.73;7.97;;;;;;;4.89;100.00;101302.41;5054754;28;20048;-81
2021/12/17 08:50:11;;;;;;;19.92;8.30;;;;;;;4.89;100.00;101298.97;5055096;28;20115;-81
2021/12/17 08:52:37;;;;;;;20.73;8.13;;;;;;;4.88;100.00;101308.41;5053530;28;20408;-81
2021/12/17 08:55:04;;;;;;;18.00;7.68;;;;;;;4.91;100.00;101305.00;5055030;28;20025;-81
2021/12/17 08:57:29;;;;;;;21.02;9.20;;;;;;;4.83;100.00;101284.31;5053608;28;20036;-81
2021/12/17 08:59:57;;;;;;;17.27;7.25;;;;;;;4.86;100.00;101291.22;5054697;28;20104;-82
2021/12/17 09:02:25;;;;;;;14.05;6.55;;;;;;;4.92;100.00;101296.38;5053283;28;20522;-82
2021/12/17 09:04:51;;;;;;;20.35;8.50;;;;;;;4.93;100.00;101299.00;5054977;28;20029;-82
2021/12/17 09:07:17;;;;;;;17.58;7.82;;;;;;;4.99;100.00;101311.91;5054805;28;20029;-82
2021/12/17 09:09:45;;;;;;;16.88;9.13;;;;;;;4.94;100.00;101313.63;5054359;28;20021;-82
2021/12/17 09:12:10;;;;;;;14.95;6.97;;;;;;;4.96;100.00;101319.63;5053346;28;20037;-82
2021/12/17 09:14:36;;;;;;;17.67;6.80;;;;;;;5.02;100.00;101318.81;5054264;28;20108;-82
2021/12/17 09:17:01;;;;;;;15.98;6.70;;;;;;;5.02;100.00;101315.38;5052898;28;20033;-82
2021/12/17 09:19:27;;;;;;;20.92;6.80;;;;;;;5.00;100.00;101325.66;5053324;28;20032;-82
2021/12/17 09:21:53;;;;;;;16.75;6.95;;;;;;;4.89;100.00;101301.56;5054279;28;20079;-82
2021/12/17 09:24:18;;;;;;;13.18;6.50;;;;;;;5.00;100.00;101323.09;5052416;28;20025;-82
2021/12/17 09:26:43;;;;;;;21.42;6.43;;;;;;;4.95;100.00;101320.50;5052961;28;20439;-82
2021/12/17 09:29:09;;;;;;;13.23;6.55;;;;;;;4.91;100.00;101305.84;5052913;28;20021;-82
2021/12/17 09:31:35;;;;;;;19.40;7.28;;;;;;;4.95;100.00;101317.06;5052516;28;20036;-82
2021/12/17 09:34:00;;;;;;;20.25;7.28;;;;;;;4.97;100.00;101313.63;5054269;28;20393;-82
2021/12/17 09:36:26;;;;;;;19.27;8.85;;;;;;;4.89;100.00;101291.22;5052915;28;20389;-82
2021/12/17 09:38:52;;;;;;;16.52;7.13;;;;;;;5.06;100.00;101317.09;5052617;28;20028;-82
2021/12/17 09:41:20;;;;;;;16.40;8.02;;;;;;;5.11;100.00;101315.38;5054018;28;20044;-83
2021/12/17 09:43:46;;;;;;;16.15;8.13;;;;;;;5.00;100.00;101289.53;5052466;28;20047;-82
2021/12/17 09:46:11;;;;;;;17.10;8.65;;;;;;;5.15;100.00;101310.22;5053665;28;20488;-82
2021/12/17 09:48:37;;;;;;;14.68;7.63;;;;;;;5.10;100.00;101300.72;5052366;28;20044;-82
2021/12/17 09:51:06;;;;;;;18.38;8.30;;;;;;;5.19;100.00;101311.09;5052669;28;20468;-82
2021/12/17 09:53:32;;;;;;;17.38;9.45;;;;;;;5.17;100.00;101293.00;5052357;28;20025;-82
2021/12/17 09:55:58;;;;;;;17.90;9.02;;;;;;;5.29;100.00;101311.97;5053771;28;20112;-82
2021/12/17 09:58:24;;;;;;;19.48;8.90;;;;;;;5.32;100.00;101307.69;5070993;28;20132;-82
2021/12/17 10:00:49;;;;;;;19.48;8.95;;;;;;;5.22;100.00;101280.09;5070952;28;20584;-82
2021/12/17 10:03:15;;;;;;;26.60;8.85;;;;;;;5.35;100.00;101302.53;5054286;28;20128;-82
2021/12/17 10:05:41;;;;;;;17.50;9.52;;;;;;;5.34;100.00;101305.94;5070855;28;20059;-82
2021/12/17 10:08:19;;;;;;;22.52;8.85;;;;;;;5.37;100.00;101318.88;5054127;28;20037;-82
2021/12/17 10:10:47;;;;;;;16.05;8.07;;;;;;;5.36;100.00;101305.97;5053901;28;20571;-82
2021/12/17 10:13:16;;;;;;;17.70;8.45;;;;;;;5.32;100.00;101309.41;5053953;28;20048;-82
2021/12/17 10:15:47;;;;;;;20.63;9.63;;;;;;;5.39;100.00;101299.03;5070640;28;20036;-82
2021/12/17 10:18:13;;;;;;;24.25;8.90;;;;;;;5.42;100.00;101304.22;5070753;28;20467;-82
2021/12/17 10:20:58;;;;;;;21.55;10.77;;;;;;;5.50;100.00;101304.25;5070466;28;20059;-82
2021/12/17 10:23:25;;;;;;;20.83;9.98;;;;;;;5.48;100.00;101290.47;5053954;28;20047;-82
2021/12/17 10:25:51;;;;;;;19.20;8.05;;;;;;;5.56;100.00;101308.53;5070422;28;20113;-82
2021/12/17 10:28:17;;;;;;;18.83;8.98;;;;;;;5.44;100.00;101294.78;5053075;28;20028;-82
2021/12/17 10:30:45;;;;;;;18.85;9.40;;;;;;;5.57;100.00;101311.16;5052752;28;20131;-82
2021/12/17 10:33:15;;;;;;;20.95;10.85;;;;;;;5.57;100.00;101316.31;5051909;28;20029;-81
2021/12/17 10:35:45;;;;;;;20.15;9.68;;;;;;;5.54;100.00;101313.72;5051903;28;20128;-81
2021/12/17 10:38:13;;;;;;;22.70;8.32;;;;;;;5.54;100.00;101310.28;5053015;28;20058;-81
2021/12/17 10:41:01;;;;;;;13.95;7.25;;;;;;;5.48;100.00;101300.81;5052923;28;20117;-81
2021/12/17 10:46:13;;;;;;;14.68;7.57;;;;;;;5.59;100.00;101305.97;5052805;28;20078;-82
2021/12/17 10:51:12;;;;;;;17.70;8.23;;;;;;;5.71;100.00;101319.75;5052865;28;20111;-81
2021/12/17 10:53:38;;;;;;;20.25;8.40;;;;;;;5.68;100.00;101321.47;5052556;28;20025;-81
2021/12/17 10:56:03;;;;;;;22.88;8.48;;;;;;;5.60;100.00;101313.72;5051273;28;20219;-81
2021/12/17 10:58:29;;;;;;;20.15;8.50;;;;;;;5.58;100.00;101310.28;5051320;28;20029;-81
2021/12/17 11:01:01;;;;;;;15.55;8.02;;;;;;;5.64;100.00;101324.91;5050915;28;20025;-81
2021/12/17 11:03:27;;;;;;;19.45;8.93;;;;;;;5.51;100.00;101301.66;5051533;28;20025;-81
2021/12/17 11:05:53;;;;;;;14.68;7.43;;;;;;;5.58;100.00;101317.16;5051023;28;20033;-81
2021/12/17 11:08:30;;;;;;;21.67;8.85;;;;;;;5.55;100.00;101318.03;5051153;28;20025;-81
2021/12/17 11:11:05;;;;;;;26.30;12.40;;;;;;;5.48;100.00;101313.72;5050852;28;20052;-82
2021/12/17 11:13:30;;;;;;;26.67;11.05;;;;;;;5.44;100.00;101330.09;5050871;28;20029;-82
2021/12/17 11:15:56;;;;;;;19.48;8.93;;;;;;;5.42;100.00;101316.28;5051047;28;20017;-82
2021/12/17 11:18:25;;;;;;;17.90;8.68;;;;;;;5.39;100.00;101318.88;5052468;28;20683;-82
2021/12/17 11:20:52;;;;;;;17.08;8.98;;;;;;;5.41;100.00;101314.56;5052010;28;20112;-81
2021/12/17 11:23:19;;;;;;;15.27;9.18;;;;;;;5.26;100.00;101289.56;5052231;28;20043;-81
2021/12/17 11:25:50;;;;;;;18.38;7.70;;;;;;;5.40;100.00;101313.72;5050595;28;20503;-81
2021/12/17 11:28:16;;;;;;;;;;;;;;;5.40;100.00;101311.13;5051124;28;20028;-81
2021/12/17 11:30:46;;;;;;;11.55;6.50;;;;;;;5.35;100.00;101307.69;5052409;28;19913;-82
2021/12/17 11:33:12;;;;;;;14.52;7.50;;;;;;;5.28;100.00;101308.53;5050857;28;20024;-82
2021/12/17 11:35:42;;;;;;;15.88;8.27;;;;;;;5.35;100.00;101319.72;5051997;28;20078;-82
2021/12/17 11:38:12;;;;;;;16.38;9.07;;;;;;;5.28;100.00;101312.84;5051858;28;20610;-82
2021/12/17 11:40:49;;;;;;;14.50;6.88;;;;;;;5.30;100.00;101313.69;5050241;28;20033;-82
2021/12/17 11:43:35;;;;;;;13.02;7.10;;;;;;;5.41;100.00;101328.34;5052064;28;20029;-82
2021/12/17 11:46:06;;;;;;;19.20;9.85;;;;;;;5.31;100.00;101305.06;5068977;28;20044;-82
2021/12/17 11:48:34;;;;;;;25.05;14.55;;;;;;;5.21;100.00;101281.81;5051754;28;20154;-83
2021/12/17 11:51:11;;;;;;;18.42;8.20;;;;;;;5.46;100.00;101305.97;5052481;28;20047;-81
2021/12/17 11:53:42;;;;;;;15.07;7.25;;;;;;;5.32;100.00;101280.97;5069581;28;20059;-81
2021/12/17 11:56:08;;;;;;;15.25;8.00;;;;;;;5.28;100.00;101287.88;5052608;28;20395;-82
2021/12/17 11:58:55;;;;;;;22.15;11.38;;;;;;;5.35;100.00;101311.97;5069115;28;20028;-81
2021/12/17 12:02:01;;;;;;;14.23;7.70;;;;;;;5.36;100.00;101316.28;5069411;28;20044;-81
2021/12/17 12:04:32;;;;;;;19.65;8.98;;;;;;;5.37;100.00;101307.69;5052398;28;20055;-81
2021/12/17 12:07:09;;;;;;;15.73;7.15;;;;;;;5.24;100.00;101289.56;5069252;28;20038;-81
2021/12/17 12:10:09;;;;;;;15.35;8.07;;;;;;;5.35;100.00;101312.84;5052077;28;20032;-81
2021/12/17 12:12:34;;;;;;;15.98;6.65;;;;;;;5.36;100.00;101306.81;5068897;28;20480;-81
2021/12/17 12:15:24;;;;;;;12.43;6.60;;;;;;;5.38;100.00;101307.66;5069196;28;20112;-82
2021/12/17 12:18:11;;;;;;;12.77;6.82;;;;;;;5.31;100.00;101282.72;5049650;28;20443;-81
2021/12/17 12:20:49;;;;;;;16.52;8.45;;;;;;;5.48;100.00;101300.81;5051561;28;20036;-82
2021/12/17 12:23:27;;;;;;;15.50;7.82;;;;;;;5.49;100.00;101311.13;5051690;28;20021;-81
2021/12/17 12:26:01;;;;;;;15.30;6.30;;;;;;;5.57;100.00;101305.13;5049962;28;20483;-81
2021/12/17 12:28:45;;;;;;;12.95;5.55;;;;;;;5.56;100.00;101300.78;5050040;28;20028;-83
2021/12/17 12:31:19;;;;;;;12.55;6.40;;;;;;;5.53;100.00;101286.16;5050320;28;20395;-84
2021/12/17 12:34:04;;;;;;;16.38;5.97;;;;;;;5.53;100.00;101290.47;5049956;28;20057;-84
2021/12/17 12:36:53;;;;;;;15.98;6.72;;;;;;;5.52;100.00;101292.19;5050180;28;20110;-84
2021/12/17 12:39:27;;;;;;;17.27;9.55;;;;;;;5.39;100.00;101280.09;5051660;28;20036;-82
2021/12/17 12:41:58;;;;;;;15.40;7.47;;;;;;;5.39;100.00;101288.72;5050033;28;20025;-81
2021/12/17 12:44:42;;;;;;;11.38;5.72;;;;;;;5.36;100.00;101288.72;5051433;28;20025;-81
2021/12/17 12:47:30;;;;;;;14.95;7.63;;;;;;;5.29;100.00;101273.22;5049683;28;20556;-82
2021/12/17 12:49:59;;;;;;;20.05;9.10;;;;;;;5.26;100.00;101277.50;5048659;28;20032;-83
2021/12/17 12:52:30;;;;;;;23.02;11.00;;;;;;;5.20;100.00;101256.00;5048773;28;20060;-82
2021/12/17 12:54:56;;;;;;;22.65;12.80;;;;;;;5.01;100.00;101234.44;5048492;28;20044;-83
2021/12/17 12:58:14;;;;;;;21.27;11.98;;;;;;;5.25;100.00;101280.09;5028462;28;20037;-83
2021/12/17 13:00:56;;;;;;;19.27;10.57;;;;;;;5.16;100.00;101254.25;4992763;28;20040;-82
2021/12/17 13:03:27;;;;;;;27.92;12.10;;;;;;;5.30;100.00;101280.97;4989756;28;20026;-85
2021/12/17 13:05:54;;;;;;;18.65;8.40;;;;;;;5.28;100.00;101269.78;4995728;28;20034;-85
2021/12/17 13:08:39;;;;;;;19.52;9.40;;;;;;;5.24;100.00;101284.41;5012299;28;20029;-86
2021/12/17 13:11:06;;;;;;;21.92;11.48;;;;;;;5.22;100.00;101291.31;5012381;28;20530;-80
2021/12/17 13:13:38;;;;;;;30.98;19.60;;;;;;;5.17;100.00;101277.50;4995886;28;20429;-85
2021/12/17 13:24:13;;;;;;;19.25;9.90;;;;;;;5.00;100.00;101274.88;5011538;28;20430;-86
2021/12/17 13:26:47;;;;;;;14.38;7.90;;;;;;;4.99;100.00;101285.22;5012694;28;20095;-85
2021/12/17 13:29:37;;;;;;;14.55;7.68;;;;;;;4.99;100.00;101280.91;4993680;28;20038;-85
2021/12/17 13:32:07;;;;;;;14.98;7.82;;;;;;;5.04;100.00;101296.41;4997038;28;20061;-85
2021/12/17 13:34:56;;;;;;;12.57;6.40;;;;;;;4.92;100.00;101283.47;5012681;28;20034;-86
2021/12/17 13:37:26;;;;;;;16.85;7.70;;;;;;;4.89;100.00;101289.50;5010755;28;20412;-86
2021/12/17 13:40:23;;;;;;;14.43;6.88;;;;;;;4.95;100.00;101293.81;5051800;28;20049;-86
2021/12/17 13:42:49;;;;;;;14.45;7.72;;;;;;;4.96;100.00;101301.56;5051596;28;20044;-86
2021/12/17 13:45:19;;;;;;;20.33;9.05;;;;;;;4.94;100.00;101298.13;5034929;28;20132;-85
2021/12/17 13:47:56;;;;;;;22.20;10.32;;;;;;;4.75;100.00;101271.38;5051050;28;20049;-86
2021/12/17 13:50:32;;;;;;;14.38;7.82;;;;;;;4.86;100.00;101288.63;5051402;28;20037;-85
2021/12/17 13:53:12;;;;;;;19.88;8.45;;;;;;;4.81;100.00;101288.63;5051439;28;20480;-86
2021/12/17 13:55:44;;;;;;;21.75;7.47;;;;;;;4.85;100.00;101285.19;5051041;28;20602;-86
2021/12/17 13:58:13;;;;;;;20.52;8.35;;;;;;;4.83;100.00;101292.06;5050937;28;20068;-85
2021/12/17 14:00:43;;;;;;;25.17;9.20;;;;;;;4.81;100.00;101286.03;5021669;28;20041;-85
2021/12/17 14:03:13;;;;;;;15.75;7.55;;;;;;;4.79;100.00;101281.72;5028523;28;20036;-85
2021/12/17 14:05:50;;;;;;;11.98;7.55;;;;;;;4.75;100.00;101286.00;5034313;28;20041;-84
2021/12/17 14:08:19;;;;;;;15.13;7.35;;;;;;;4.71;100.00;101277.38;5019353;28;20033;-84
2021/12/17 14:10:48;;;;;;;16.35;8.38;;;;;;;4.74;100.00;101287.72;5045920;28;20381;-86
2021/12/17 14:13:25;;;;;;;22.83;12.77;;;;;;;4.78;100.00;101303.22;5092519;28;20483;-83
2021/12/17 14:15:53;;;;;;;19.17;9.82;;;;;;;4.69;100.00;101299.75;5074002;28;20039;-84
2021/12/17 14:18:22;;;;;;;19.02;9.23;;;;;;;4.77;100.00;101307.53;5091741;28;20445;-85
2021/12/17 14:20:54;;;;;;;18.30;10.18;;;;;;;4.65;100.00;101285.13;5090812;28;20048;-84
2021/12/17 14:23:27;;;;;;;16.80;9.05;;;;;;;4.67;100.00;101291.13;5073067;28;20606;-84
2021/12/17 14:25:56;;;;;;;19.52;11.77;;;;;;;4.71;100.00;101310.94;5070237;28;20028;-85
2021/12/17 14:28:25;;;;;;;23.27;10.40;;;;;;;4.63;100.00;101296.28;5050337;28;20037;-84